sensor_id;sensor_type;location;lat;lon;timestamp;pressure;altitude;pressure_sealevel;temperature;humidity
79461;BME280;68929;42.666;23.324;2023-06-14T00:01:00;94261.50;;;18.32;75.99
79461;BME280;68929;42.666;23.324;2023-06-14T00:03:28;94262.59;;;18.26;76.24
79461;BME280;68929;42.666;23.324;2023-06-14T00:05:54;94258.06;;;18.07;77.22
79461;BME280;68929;42.666;23.324;2023-06-14T00:08:19;94261.25;;;18.29;76.67
79461;BME280;68929;42.666;23.324;2023-06-14T00:10:46;94278.31;;;18.63;76.04
79461;BME280;68929;42.666;23.324;2023-06-14T00:13:12;94240.59;;;18.65;75.08
79461;BME280;68929;42.666;23.324;2023-06-14T00:15:37;94261.88;;;19.00;74.79
79461;BME280;68929;42.666;23.324;2023-06-14T00:18:03;94265.09;;;18.97;74.68
79461;BME280;68929;42.666;23.324;2023-06-14T00:20:30;94261.34;;;18.98;73.96
79461;BME280;68929;42.666;23.324;2023-06-14T00:22:58;94257.34;;;18.95;74.59
79461;BME280;68929;42.666;23.324;2023-06-14T00:25:24;94265.13;;;18.92;74.60
79461;BME280;68929;42.666;23.324;2023-06-14T00:27:53;94268.28;;;19.04;74.32
79461;BME280;68929;42.666;23.324;2023-06-14T00:30:19;94265.56;;;19.09;73.99
79461;BME280;68929;42.666;23.324;2023-06-14T00:32:45;94251.72;;;18.97;74.05
79461;BME280;68929;42.666;23.324;2023-06-14T00:35:12;94253.31;;;18.98;74.29
79461;BME280;68929;42.666;23.324;2023-06-14T00:37:38;94260.84;;;18.96;74.79
79461;BME280;68929;42.666;23.324;2023-06-14T00:40:04;94263.47;;;19.01;74.18
79461;BME280;68929;42.666;23.324;2023-06-14T00:42:31;94247.41;;;19.01;74.13
79461;BME280;68929;42.666;23.324;2023-06-14T00:44:57;94242.78;;;19.11;73.17
79461;BME280;68929;42.666;23.324;2023-06-14T00:47:22;94242.56;;;19.08;73.35
79461;BME280;68929;42.666;23.324;2023-06-14T00:49:49;94246.78;;;19.19;73.48
79461;BME280;68929;42.666;23.324;2023-06-14T00:52:16;94228.34;;;19.12;73.69
79461;BME280;68929;42.666;23.324;2023-06-14T00:54:41;94249.25;;;19.05;73.57
79461;BME280;68929;42.666;23.324;2023-06-14T00:57:07;94254.38;;;19.02;74.25
79461;BME280;68929;42.666;23.324;2023-06-14T00:59:36;94236.16;;;19.04;74.08
79461;BME280;68929;42.666;23.324;2023-06-14T01:02:04;94231.25;;;19.16;73.92
79461;BME280;68929;42.666;23.324;2023-06-14T01:04:29;94244.06;;;19.29;73.17
79461;BME280;68929;42.666;23.324;2023-06-14T01:07:10;94248.16;;;19.11;73.69
79461;BME280;68929;42.666;23.324;2023-06-14T01:15:26;94246.00;;;19.13;74.42
79461;BME280;68929;42.666;23.324;2023-06-14T01:17:53;94244.19;;;18.99;74.34
79461;BME280;68929;42.666;23.324;2023-06-14T01:20:22;94242.22;;;19.20;73.72
79461;BME280;68929;42.666;23.324;2023-06-14T01:22:53;94246.06;;;18.98;74.06
79461;BME280;68929;42.666;23.324;2023-06-14T01:25:22;94247.50;;;18.81;74.20
79461;BME280;68929;42.666;23.324;2023-06-14T01:27:53;94252.28;;;18.84;74.31
79461;BME280;68929;42.666;23.324;2023-06-14T01:30:20;94213.84;;;18.60;74.88
79461;BME280;68929;42.666;23.324;2023-06-14T01:32:47;94235.94;;;18.90;74.47
79461;BME280;68929;42.666;23.324;2023-06-14T01:35:14;94238.03;;;18.98;74.58
79461;BME280;68929;42.666;23.324;2023-06-14T01:37:40;94227.03;;;19.05;73.96
79461;BME280;68929;42.666;23.324;2023-06-14T01:40:07;94238.78;;;19.14;73.48
79461;BME280;68929;42.666;23.324;2023-06-14T01:42:35;94244.44;;;19.07;73.75
79461;BME280;68929;42.666;23.324;2023-06-14T01:45:02;94240.94;;;19.07;73.87
79461;BME280;68929;42.666;23.324;2023-06-14T01:47:29;94235.09;;;18.95;73.85
79461;BME280;68929;42.666;23.324;2023-06-14T01:49:55;94239.66;;;18.99;74.41
79461;BME280;68929;42.666;23.324;2023-06-14T01:52:20;94218.00;;;18.86;74.21
79461;BME280;68929;42.666;23.324;2023-06-14T01:54:47;94231.84;;;19.08;74.16
79461;BME280;68929;42.666;23.324;2023-06-14T01:57:13;94235.59;;;19.07;73.67
79461;BME280;68929;42.666;23.324;2023-06-14T01:59:38;94248.19;;;19.06;73.68
79461;BME280;68929;42.666;23.324;2023-06-14T02:02:04;94250.59;;;19.08;73.51
79461;BME280;68929;42.666;23.324;2023-06-14T02:04:30;94253.75;;;19.15;73.56
79461;BME280;68929;42.666;23.324;2023-06-14T02:06:55;94239.13;;;18.97;73.85
79461;BME280;68929;42.666;23.324;2023-06-14T02:09:20;94259.38;;;19.19;72.71
79461;BME280;68929;42.666;23.324;2023-06-14T02:11:46;94263.41;;;19.16;72.89
79461;BME280;68929;42.666;23.324;2023-06-14T02:14:11;94241.97;;;18.47;74.26
79461;BME280;68929;42.666;23.324;2023-06-14T02:16:37;94265.25;;;18.31;75.63
79461;BME280;68929;42.666;23.324;2023-06-14T02:19:04;94255.94;;;17.99;76.71
79461;BME280;68929;42.666;23.324;2023-06-14T02:21:29;94270.91;;;17.85;77.49
79461;BME280;68929;42.666;23.324;2023-06-14T02:23:55;94257.81;;;17.93;77.04
79461;BME280;68929;42.666;23.324;2023-06-14T02:26:21;94270.13;;;17.79;77.67
79461;BME280;68929;42.666;23.324;2023-06-14T02:28:47;94261.28;;;17.69;78.42
79461;BME280;68929;42.666;23.324;2023-06-14T02:31:13;94272.78;;;17.89;77.76
79461;BME280;68929;42.666;23.324;2023-06-14T02:33:38;94256.19;;;17.92;77.28
79461;BME280;68929;42.666;23.324;2023-06-14T02:36:04;94262.06;;;17.84;77.05
79461;BME280;68929;42.666;23.324;2023-06-14T02:38:30;94258.88;;;17.77;77.64
79461;BME280;68929;42.666;23.324;2023-06-14T02:40:55;94262.59;;;17.96;77.49
79461;BME280;68929;42.666;23.324;2023-06-14T02:43:21;94262.59;;;17.96;77.54
79461;BME280;68929;42.666;23.324;2023-06-14T02:45:46;94270.38;;;17.98;78.00
79461;BME280;68929;42.666;23.324;2023-06-14T02:48:12;94269.28;;;17.84;77.82
79461;BME280;68929;42.666;23.324;2023-06-14T02:50:37;94250.31;;;17.65;78.14
79461;BME280;68929;42.666;23.324;2023-06-14T02:53:02;94251.34;;;17.49;78.71
79461;BME280;68929;42.666;23.324;2023-06-14T02:55:28;94254.06;;;17.74;78.42
79461;BME280;68929;42.666;23.324;2023-06-14T02:57:54;94256.72;;;18.09;77.06
79461;BME280;68929;42.666;23.324;2023-06-14T03:00:19;94277.56;;;18.38;76.53
79461;BME280;68929;42.666;23.324;2023-06-14T03:02:45;94267.13;;;18.46;75.86
79461;BME280;68929;42.666;23.324;2023-06-14T03:05:11;94269.53;;;18.38;75.65
79461;BME280;68929;42.666;23.324;2023-06-14T03:07:36;94269.00;;;18.25;76.53
79461;BME280;68929;42.666;23.324;2023-06-14T03:10:09;94267.41;;;18.40;76.64
79461;BME280;68929;42.666;23.324;2023-06-14T03:12:35;94281.31;;;18.52;76.68
79461;BME280;68929;42.666;23.324;2023-06-14T03:15:01;94287.44;;;18.42;76.37
79461;BME280;68929;42.666;23.324;2023-06-14T03:17:27;94280.25;;;18.32;77.08
79461;BME280;68929;42.666;23.324;2023-06-14T03:19:55;94273.28;;;18.26;76.96
79461;BME280;68929;42.666;23.324;2023-06-14T03:22:20;94285.59;;;18.27;77.42
79461;BME280;68929;42.666;23.324;2023-06-14T03:24:47;94282.38;;;18.30;77.14
79461;BME280;68929;42.666;23.324;2023-06-14T03:27:13;94288.28;;;18.38;76.84
79461;BME280;68929;42.666;23.324;2023-06-14T03:29:39;94275.44;;;18.24;77.03
79461;BME280;68929;42.666;23.324;2023-06-14T03:32:05;94270.91;;;18.25;77.04
79461;BME280;68929;42.666;23.324;2023-06-14T03:34:30;94300.06;;;18.16;77.27
79461;BME280;68929;42.666;23.324;2023-06-14T03:36:56;94300.59;;;18.03;78.25
79461;BME280;68929;42.666;23.324;2023-06-14T03:39:22;94284.56;;;17.83;77.39
79461;BME280;68929;42.666;23.324;2023-06-14T03:41:47;94288.03;;;17.79;78.54
79461;BME280;68929;42.666;23.324;2023-06-14T03:44:15;94286.66;;;17.71;78.90
79461;BME280;68929;42.666;23.324;2023-06-14T03:46:41;94293.63;;;17.82;78.08
79461;BME280;68929;42.666;23.324;2023-06-14T03:49:07;94301.38;;;17.79;77.96
79461;BME280;68929;42.666;23.324;2023-06-14T03:51:32;94295.22;;;17.63;79.40
79461;BME280;68929;42.666;23.324;2023-06-14T03:54:00;94290.16;;;17.77;78.61
79461;BME280;68929;42.666;23.324;2023-06-14T03:56:26;94285.50;;;17.32;78.87
79461;BME280;68929;42.666;23.324;2023-06-14T03:58:52;94303.94;;;17.38;80.12
79461;BME280;68929;42.666;23.324;2023-06-14T04:01:18;94312.84;;;17.54;79.28
79461;BME280;68929;42.666;23.324;2023-06-14T04:03:43;94287.19;;;17.53;79.42
79461;BME280;68929;42.666;23.324;2023-06-14T04:06:09;94293.81;;;17.35;79.68
79461;BME280;68929;42.666;23.324;2023-06-14T04:08:34;94301.56;;;17.47;79.17
79461;BME280;68929;42.666;23.324;2023-06-14T04:11:00;94299.19;;;17.50;79.38
79461;BME280;68929;42.666;23.324;2023-06-14T04:13:26;94303.66;;;17.25;79.76
79461;BME280;68929;42.666;23.324;2023-06-14T04:16:02;94310.53;;;17.06;80.76
79461;BME280;68929;42.666;23.324;2023-06-14T04:18:27;94289.06;;;16.86;80.67
79461;BME280;68929;42.666;23.324;2023-06-14T04:20:52;94306.78;;;17.07;81.32
79461;BME280;68929;42.666;23.324;2023-06-14T04:23:18;94300.69;;;17.16;80.83
79461;BME280;68929;42.666;23.324;2023-06-14T04:25:44;94286.56;;;17.21;80.67
79461;BME280;68929;42.666;23.324;2023-06-14T04:28:13;94303.75;;;17.55;79.43
79461;BME280;68929;42.666;23.324;2023-06-14T04:30:41;94305.41;;;17.96;78.15
79461;BME280;68929;42.666;23.324;2023-06-14T04:33:06;94285.63;;;17.77;77.36
79461;BME280;68929;42.666;23.324;2023-06-14T04:35:32;94302.72;;;18.11;76.00
79461;BME280;68929;42.666;23.324;2023-06-14T04:37:58;94311.28;;;18.28;75.92
79461;BME280;68929;42.666;23.324;2023-06-14T04:40:24;94281.81;;;18.69;74.82
79461;BME280;68929;42.666;23.324;2023-06-14T04:42:49;94304.41;;;19.17;72.73
79461;BME280;68929;42.666;23.324;2023-06-14T04:45:16;94305.16;;;19.27;72.54
79461;BME280;68929;42.666;23.324;2023-06-14T04:47:42;94281.53;;;19.39;72.18
79461;BME280;68929;42.666;23.324;2023-06-14T04:50:09;94302.56;;;19.66;71.27
79461;BME280;68929;42.666;23.324;2023-06-14T04:52:36;94307.56;;;19.82;71.25
79461;BME280;68929;42.666;23.324;2023-06-14T04:55:02;94304.94;;;19.72;71.04
79461;BME280;68929;42.666;23.324;2023-06-14T04:57:28;94304.78;;;19.98;70.17
79461;BME280;68929;42.666;23.324;2023-06-14T04:59:54;94300.16;;;19.64;70.71
79461;BME280;68929;42.666;23.324;2023-06-14T05:02:24;94319.75;;;20.04;70.15
79461;BME280;68929;42.666;23.324;2023-06-14T05:04:50;94324.38;;;19.93;70.17
79461;BME280;68929;42.666;23.324;2023-06-14T05:07:15;94309.94;;;19.84;70.14
79461;BME280;68929;42.666;23.324;2023-06-14T05:09:41;94323.50;;;20.03;70.10
79461;BME280;68929;42.666;23.324;2023-06-14T05:12:07;94324.00;;;20.10;69.34
79461;BME280;68929;42.666;23.324;2023-06-14T05:14:34;94318.28;;;19.82;70.39
79461;BME280;68929;42.666;23.324;2023-06-14T05:17:03;94323.78;;;20.01;70.11
79461;BME280;68929;42.666;23.324;2023-06-14T05:19:29;94337.56;;;19.84;70.13
79461;BME280;68929;42.666;23.324;2023-06-14T05:21:54;94330.25;;;20.00;71.44
79461;BME280;68929;42.666;23.324;2023-06-14T05:24:19;94324.31;;;20.03;70.94
79461;BME280;68929;42.666;23.324;2023-06-14T05:26:49;94343.44;;;19.91;70.19
79461;BME280;68929;42.666;23.324;2023-06-14T05:29:15;94327.63;;;19.41;69.79
79461;BME280;68929;42.666;23.324;2023-06-14T05:31:40;94339.13;;;19.52;70.07
79461;BME280;68929;42.666;23.324;2023-06-14T05:34:15;94345.22;;;19.62;69.49
79461;BME280;68929;42.666;23.324;2023-06-14T05:36:40;94352.88;;;19.84;70.15
79461;BME280;68929;42.666;23.324;2023-06-14T05:39:05;94342.19;;;19.74;69.98
79461;BME280;68929;42.666;23.324;2023-06-14T05:41:35;94343.44;;;19.91;69.54
79461;BME280;68929;42.666;23.324;2023-06-14T05:44:01;94332.41;;;19.98;68.17
79461;BME280;68929;42.666;23.324;2023-06-14T05:46:35;94350.50;;;20.16;68.88
79461;BME280;68929;42.666;23.324;2023-06-14T05:49:01;94342.41;;;19.82;68.15
79461;BME280;68929;42.666;23.324;2023-06-14T05:51:36;94362.59;;;20.14;68.55
79461;BME280;68929;42.666;23.324;2023-06-14T05:54:02;94346.50;;;20.14;68.31
79461;BME280;68929;42.666;23.324;2023-06-14T05:56:28;94364.16;;;20.25;68.64
79461;BME280;68929;42.666;23.324;2023-06-14T05:58:53;94350.97;;;20.33;67.23
79461;BME280;68929;42.666;23.324;2023-06-14T06:01:19;94352.06;;;20.61;68.72
79461;BME280;68929;42.666;23.324;2023-06-14T06:03:57;94358.66;;;20.01;69.36
79461;BME280;68929;42.666;23.324;2023-06-14T06:06:22;94346.50;;;20.14;67.84
79461;BME280;68929;42.666;23.324;2023-06-14T06:08:48;94335.75;;;20.14;67.46
79461;BME280;68929;42.666;23.324;2023-06-14T06:11:15;94366.63;;;20.16;68.66
79461;BME280;68929;42.666;23.324;2023-06-14T06:13:44;94338.63;;;19.88;67.61
79461;BME280;68929;42.666;23.324;2023-06-14T06:16:10;94365.06;;;20.05;67.74
79461;BME280;68929;42.666;23.324;2023-06-14T06:18:35;94377.13;;;20.13;68.95
79461;BME280;68929;42.666;23.324;2023-06-14T06:21:02;94353.66;;;19.84;68.29
79461;BME280;68929;42.666;23.324;2023-06-14T06:23:28;94368.59;;;20.01;69.49
79461;BME280;68929;42.666;23.324;2023-06-14T06:25:53;94367.53;;;19.97;69.19
79461;BME280;68929;42.666;23.324;2023-06-14T06:28:21;94355.91;;;19.72;69.99
79461;BME280;68929;42.666;23.324;2023-06-14T06:30:49;94367.09;;;19.84;70.56
79461;BME280;68929;42.666;23.324;2023-06-14T06:33:25;94371.47;;;19.65;71.19
79461;BME280;68929;42.666;23.324;2023-06-14T06:35:50;94364.41;;;19.84;71.28
79461;BME280;68929;42.666;23.324;2023-06-14T06:38:20;94387.06;;;19.58;72.07
79461;BME280;68929;42.666;23.324;2023-06-14T06:40:46;94382.00;;;19.52;71.99
79461;BME280;68929;42.666;23.324;2023-06-14T06:43:11;94362.50;;;19.26;73.20
79461;BME280;68929;42.666;23.324;2023-06-14T06:45:41;94368.34;;;19.48;72.24
79461;BME280;68929;42.666;23.324;2023-06-14T06:48:07;94373.38;;;19.60;72.15
79461;BME280;68929;42.666;23.324;2023-06-14T06:50:32;94372.28;;;19.66;72.97
79461;BME280;68929;42.666;23.324;2023-06-14T06:52:58;94374.69;;;19.67;71.50
79461;BME280;68929;42.666;23.324;2023-06-14T06:55:23;94359.59;;;19.81;70.94
79461;BME280;68929;42.666;23.324;2023-06-14T06:57:49;94365.72;;;19.87;70.76
79461;BME280;68929;42.666;23.324;2023-06-14T07:00:15;94385.44;;;19.62;71.80
79461;BME280;68929;42.666;23.324;2023-06-14T07:02:47;94395.19;;;19.97;71.98
79461;BME280;68929;42.666;23.324;2023-06-14T07:05:12;94358.06;;;19.70;71.43
79461;BME280;68929;42.666;23.324;2023-06-14T07:07:43;94390.03;;;20.01;71.43
79461;BME280;68929;42.666;23.324;2023-06-14T07:10:08;94378.34;;;19.86;70.21
79461;BME280;68929;42.666;23.324;2023-06-14T07:12:34;94363.66;;;19.74;70.85
79461;BME280;68929;42.666;23.324;2023-06-14T07:15:04;94385.63;;;20.25;69.97
79461;BME280;68929;42.666;23.324;2023-06-14T07:17:30;94373.06;;;20.54;69.59
79461;BME280;68929;42.666;23.324;2023-06-14T07:19:57;94387.84;;;20.80;70.13
79461;BME280;68929;42.666;23.324;2023-06-14T07:22:23;94369.16;;;21.27;65.18
79461;BME280;68929;42.666;23.324;2023-06-14T07:24:49;94377.66;;;21.82;63.30
79461;BME280;68929;42.666;23.324;2023-06-14T07:27:22;94372.13;;;21.92;63.31
79461;BME280;68929;42.666;23.324;2023-06-14T07:29:47;94374.72;;;22.71;60.54
79461;BME280;68929;42.666;23.324;2023-06-14T07:32:12;94361.41;;;23.21;60.89
79461;BME280;68929;42.666;23.324;2023-06-14T07:34:39;94374.16;;;23.01;58.74
79461;BME280;68929;42.666;23.324;2023-06-14T07:37:13;94366.56;;;22.39;60.30
79461;BME280;68929;42.666;23.324;2023-06-14T07:39:39;94373.72;;;22.11;60.34
79461;BME280;68929;42.666;23.324;2023-06-14T07:42:07;94362.16;;;22.30;61.91
79461;BME280;68929;42.666;23.324;2023-06-14T07:44:32;94352.09;;;22.35;62.36
79461;BME280;68929;42.666;23.324;2023-06-14T07:47:09;94372.03;;;22.53;58.85
79461;BME280;68929;42.666;23.324;2023-06-14T07:49:40;94368.47;;;22.89;61.64
79461;BME280;68929;42.666;23.324;2023-06-14T07:52:14;94372.41;;;23.11;60.82
79461;BME280;68929;42.666;23.324;2023-06-14T07:54:39;94380.94;;;22.99;60.38
79461;BME280;68929;42.666;23.324;2023-06-14T07:57:06;94385.31;;;23.41;60.07
79461;BME280;68929;42.666;23.324;2023-06-14T07:59:45;94365.44;;;23.37;59.44
79461;BME280;68929;42.666;23.324;2023-06-14T08:02:11;94374.34;;;23.51;59.12
79461;BME280;68929;42.666;23.324;2023-06-14T08:04:36;94379.03;;;23.72;56.04
79461;BME280;68929;42.666;23.324;2023-06-14T08:07:02;94374.94;;;24.24;56.65
79461;BME280;68929;42.666;23.324;2023-06-14T08:09:37;94380.13;;;24.92;55.79
79461;BME280;68929;42.666;23.324;2023-06-14T08:12:15;94385.31;;;24.89;53.31
79461;BME280;68929;42.666;23.324;2023-06-14T08:14:42;94405.31;;;25.32;54.68
79461;BME280;68929;42.666;23.324;2023-06-14T08:17:09;94399.25;;;25.35;51.48
79461;BME280;68929;42.666;23.324;2023-06-14T08:19:34;94401.38;;;25.16;53.05
79461;BME280;68929;42.666;23.324;2023-06-14T08:22:01;94412.06;;;25.43;54.35
79461;BME280;68929;42.666;23.324;2023-06-14T08:24:32;94410.69;;;25.23;54.79
79461;BME280;68929;42.666;23.324;2023-06-14T08:26:58;94393.31;;;24.94;55.07
79461;BME280;68929;42.666;23.324;2023-06-14T08:29:30;94395.03;;;24.68;55.07
79461;BME280;68929;42.666;23.324;2023-06-14T08:31:56;94399.31;;;24.46;55.62
79461;BME280;68929;42.666;23.324;2023-06-14T08:34:22;94412.31;;;24.44;54.97
79461;BME280;68929;42.666;23.324;2023-06-14T08:36:58;94401.81;;;24.07;55.03
79461;BME280;68929;42.666;23.324;2023-06-14T08:39:23;94401.81;;;24.07;54.16
79461;BME280;68929;42.666;23.324;2023-06-14T08:41:49;94400.00;;;23.89;57.19
79461;BME280;68929;42.666;23.324;2023-06-14T08:44:16;94402.41;;;24.04;56.19
79461;BME280;68929;42.666;23.324;2023-06-14T08:46:42;94384.09;;;24.15;55.56
79461;BME280;68929;42.666;23.324;2023-06-14T08:49:16;94375.78;;;23.98;57.66
79461;BME280;68929;42.666;23.324;2023-06-14T08:51:43;94384.41;;;24.13;56.83
79461;BME280;68929;42.666;23.324;2023-06-14T08:54:10;94403.56;;;24.25;57.67
79461;BME280;68929;42.666;23.324;2023-06-14T08:56:37;94392.16;;;24.28;56.26
79461;BME280;68929;42.666;23.324;2023-06-14T08:59:11;94379.03;;;24.57;56.25
79461;BME280;68929;42.666;23.324;2023-06-14T09:01:37;94400.03;;;25.27;54.28
79461;BME280;68929;42.666;23.324;2023-06-14T09:04:03;94396.53;;;25.57;51.98
79461;BME280;68929;42.666;23.324;2023-06-14T09:06:45;94391.91;;;26.05;51.21
79461;BME280;68929;42.666;23.324;2023-06-14T09:09:11;94393.50;;;25.59;51.63
79461;BME280;68929;42.666;23.324;2023-06-14T09:11:42;94396.22;;;25.28;51.66
79461;BME280;68929;42.666;23.324;2023-06-14T09:14:08;94384.25;;;24.54;54.21
79461;BME280;68929;42.666;23.324;2023-06-14T09:16:33;94386.28;;;24.48;54.05
79461;BME280;68929;42.666;23.324;2023-06-14T09:18:59;94386.91;;;24.68;55.95
79461;BME280;68929;42.666;23.324;2023-06-14T09:21:24;94384.59;;;24.75;55.81
79461;BME280;68929;42.666;23.324;2023-06-14T09:23:55;94379.31;;;24.70;54.91
79461;BME280;68929;42.666;23.324;2023-06-14T09:26:20;94388.59;;;24.77;52.72
79461;BME280;68929;42.666;23.324;2023-06-14T09:28:48;94386.94;;;24.90;52.94
79461;BME280;68929;42.666;23.324;2023-06-14T09:31:16;94382.75;;;24.84;52.54
79461;BME280;68929;42.666;23.324;2023-06-14T09:33:46;94366.22;;;25.16;55.32
79461;BME280;68929;42.666;23.324;2023-06-14T09:36:22;94371.47;;;25.82;49.38
79461;BME280;68929;42.666;23.324;2023-06-14T09:38:55;94380.03;;;26.49;52.70
79461;BME280;68929;42.666;23.324;2023-06-14T09:41:40;94369.00;;;26.71;50.82
79461;BME280;68929;42.666;23.324;2023-06-14T09:44:10;94354.66;;;26.62;51.81
79461;BME280;68929;42.666;23.324;2023-06-14T09:46:37;94371.25;;;26.61;50.61
79461;BME280;68929;42.666;23.324;2023-06-14T09:49:03;94364.78;;;25.88;51.19
79461;BME280;68929;42.666;23.324;2023-06-14T09:51:32;94367.66;;;25.44;50.74
79461;BME280;68929;42.666;23.324;2023-06-14T09:54:02;94369.03;;;25.02;52.53
79461;BME280;68929;42.666;23.324;2023-06-14T09:56:34;94365.19;;;25.03;52.91
79461;BME280;68929;42.666;23.324;2023-06-14T09:58:59;94356.81;;;24.60;53.64
79461;BME280;68929;42.666;23.324;2023-06-14T10:01:30;94360.16;;;24.80;56.13
79461;BME280;68929;42.666;23.324;2023-06-14T10:04:07;94356.09;;;24.91;54.24
79461;BME280;68929;42.666;23.324;2023-06-14T10:06:37;94345.88;;;24.88;52.45
79461;BME280;68929;42.666;23.324;2023-06-14T10:09:08;94345.78;;;25.71;53.01
79461;BME280;68929;42.666;23.324;2023-06-14T10:11:35;94328.34;;;26.37;50.61
79461;BME280;68929;42.666;23.324;2023-06-14T10:14:01;94342.13;;;27.21;50.44
79461;BME280;68929;42.666;23.324;2023-06-14T10:16:41;94340.25;;;27.59;47.91
79461;BME280;68929;42.666;23.324;2023-06-14T10:22:08;94330.22;;;28.51;46.03
79461;BME280;68929;42.666;23.324;2023-06-14T10:24:42;94331.09;;;28.96;41.77
79461;BME280;68929;42.666;23.324;2023-06-14T10:27:15;94328.00;;;29.18;45.86
79461;BME280;68929;42.666;23.324;2023-06-14T10:30:04;94333.47;;;28.98;43.67
79461;BME280;68929;42.666;23.324;2023-06-14T10:32:31;94328.22;;;28.19;44.14
79461;BME280;68929;42.666;23.324;2023-06-14T10:35:04;94320.69;;;26.82;45.68
79461;BME280;68929;42.666;23.324;2023-06-14T10:37:30;94318.88;;;25.75;50.29
79461;BME280;68929;42.666;23.324;2023-06-14T10:39:59;94326.91;;;26.05;50.53
79461;BME280;68929;42.666;23.324;2023-06-14T10:42:31;94317.00;;;25.92;51.13
79461;BME280;68929;42.666;23.324;2023-06-14T10:44:57;94316.81;;;25.72;50.63
79461;BME280;68929;42.666;23.324;2023-06-14T10:47:36;94325.50;;;26.42;51.65
79461;BME280;68929;42.666;23.324;2023-06-14T10:50:08;94319.59;;;27.96;45.62
79461;BME280;68929;42.666;23.324;2023-06-14T10:52:38;94326.13;;;28.24;46.60
79461;BME280;68929;42.666;23.324;2023-06-14T10:55:16;94317.69;;;28.59;44.09
79461;BME280;68929;42.666;23.324;2023-06-14T10:57:55;94296.75;;;29.04;40.59
79461;BME280;68929;42.666;23.324;2023-06-14T11:00:29;94295.06;;;28.46;42.11
79461;BME280;68929;42.666;23.324;2023-06-14T11:03:21;94300.84;;;28.65;43.32
79461;BME280;68929;42.666;23.324;2023-06-14T11:06:22;94293.91;;;29.00;41.44
79461;BME280;68929;42.666;23.324;2023-06-14T11:12:07;94297.63;;;29.65;45.30
79461;BME280;68929;42.666;23.324;2023-06-14T11:14:36;94293.81;;;30.42;41.34
79461;BME280;68929;42.666;23.324;2023-06-14T11:17:02;94279.13;;;31.02;38.03
79461;BME280;68929;42.666;23.324;2023-06-14T11:19:27;94289.63;;;31.31;37.66
79461;BME280;68929;42.666;23.324;2023-06-14T11:22:00;94273.09;;;31.55;35.92
79461;BME280;68929;42.666;23.324;2023-06-14T11:24:26;94274.47;;;31.18;39.96
79461;BME280;68929;42.666;23.324;2023-06-14T11:26:51;94281.88;;;29.82;41.53
79461;BME280;68929;42.666;23.324;2023-06-14T11:29:20;94269.56;;;28.59;46.66
79461;BME280;68929;42.666;23.324;2023-06-14T11:31:49;94290.69;;;28.74;45.35
79461;BME280;68929;42.666;23.324;2023-06-14T11:34:14;94280.91;;;30.54;43.90
79461;BME280;68929;42.666;23.324;2023-06-14T11:36:45;94262.31;;;30.72;41.42
79461;BME280;68929;42.666;23.324;2023-06-14T11:39:13;94273.91;;;30.97;37.11
79461;BME280;68929;42.666;23.324;2023-06-14T11:41:40;94280.88;;;32.03;35.46
79461;BME280;68929;42.666;23.324;2023-06-14T11:44:06;94280.06;;;32.38;35.60
79461;BME280;68929;42.666;23.324;2023-06-14T11:46:32;94269.16;;;33.18;35.97
79461;BME280;68929;42.666;23.324;2023-06-14T11:48:58;94257.44;;;30.50;38.53
79461;BME280;68929;42.666;23.324;2023-06-14T11:51:23;94248.19;;;28.82;44.46
79461;BME280;68929;42.666;23.324;2023-06-14T11:53:51;94248.81;;;28.34;44.87
79461;BME280;68929;42.666;23.324;2023-06-14T11:56:31;94244.75;;;29.30;43.43
79461;BME280;68929;42.666;23.324;2023-06-14T11:58:58;94223.50;;;29.95;43.11
79461;BME280;68929;42.666;23.324;2023-06-14T12:01:24;94211.41;;;30.09;40.93
79461;BME280;68929;42.666;23.324;2023-06-14T12:04:01;94237.75;;;29.41;41.72
79461;BME280;68929;42.666;23.324;2023-06-14T12:06:28;94246.44;;;28.65;44.44
79461;BME280;68929;42.666;23.324;2023-06-14T12:08:56;94212.63;;;27.39;42.89
79461;BME280;68929;42.666;23.324;2023-06-14T12:11:42;94232.38;;;26.55;46.80
79461;BME280;68929;42.666;23.324;2023-06-14T12:14:11;94227.00;;;26.12;45.68
79461;BME280;68929;42.666;23.324;2023-06-14T12:16:40;94213.56;;;26.42;50.77
79461;BME280;68929;42.666;23.324;2023-06-14T12:19:14;94219.94;;;26.46;46.85
79461;BME280;68929;42.666;23.324;2023-06-14T12:21:46;94224.56;;;27.00;49.45
79461;BME280;68929;42.666;23.324;2023-06-14T12:24:27;94194.53;;;26.76;46.99
79461;BME280;68929;42.666;23.324;2023-06-14T12:26:54;94205.84;;;26.69;47.11
79461;BME280;68929;42.666;23.324;2023-06-14T12:29:20;94213.09;;;26.40;48.46
79461;BME280;68929;42.666;23.324;2023-06-14T12:31:47;94217.09;;;26.42;48.51
79461;BME280;68929;42.666;23.324;2023-06-14T12:34:18;94197.72;;;26.69;46.91
79461;BME280;68929;42.666;23.324;2023-06-14T12:36:43;94211.00;;;27.00;48.68
79461;BME280;68929;42.666;23.324;2023-06-14T12:39:15;94208.22;;;26.71;50.60
79461;BME280;68929;42.666;23.324;2023-06-14T12:41:41;94192.59;;;26.22;47.80
79461;BME280;68929;42.666;23.324;2023-06-14T12:44:21;94193.25;;;25.76;50.88
79461;BME280;68929;42.666;23.324;2023-06-14T12:46:47;94205.63;;;25.60;51.59
79461;BME280;68929;42.666;23.324;2023-06-14T12:49:12;94204.47;;;25.35;51.33
79461;BME280;68929;42.666;23.324;2023-06-14T12:51:40;94191.72;;;25.27;53.36
79461;BME280;68929;42.666;23.324;2023-06-14T12:54:06;94188.13;;;24.84;52.59
79461;BME280;68929;42.666;23.324;2023-06-14T12:56:32;94189.69;;;24.85;51.58
79461;BME280;68929;42.666;23.324;2023-06-14T12:58:58;94191.31;;;24.94;51.32
79461;BME280;68929;42.666;23.324;2023-06-14T13:01:33;94182.97;;;25.30;54.97
79461;BME280;68929;42.666;23.324;2023-06-14T13:03:58;94191.72;;;25.27;52.58
79461;BME280;68929;42.666;23.324;2023-06-14T13:06:24;94196.47;;;25.13;55.07